Nearby METAR Reports

 

KAVP - Avoca/Wilkes B., Pennsylvania, USA
Distance from station: N 16mi, 25km
Updated: 02/16/2020 12:54pm
Overcast
Overcast
 Wind from SW
Wind: SW 9 mph , 15 km/h
Temperature: 37°F , 3°C
Wind Chill: 30°F , -1°C
Dew Point: 18°F , -8°C
Humidity: 45%
Barometer: 30.06 inHg , 1017.9 hPa
Clouds: Overcast
Visibility: 10 miles , 16 km
Cloud details: Overcast 7000 ft
2020/02/16 17:54 KAVP 161754Z 23008KT 10SM OVC070 03/M08 A3006 RMK AO2 SLP186 T00281078 10028 21011 58019 $
KMPO - Mt. Pocono, Pennsylvania, USA
Distance from station: E 20mi, 33km
Updated: 02/16/2020 1:24pm
Overcast
Overcast
 Wind from WSW
Wind: WSW 9 mph , 15 km/h
Temperature: 34°F , 1°C
Wind Chill: 27°F , -3°C
Dew Point: 19°F , -7°C
Humidity: 56%
Barometer: 30.01 inHg , 1016.3 hPa
Clouds: Overcast
Visibility: 10 miles , 16 km
Cloud details: Partly cloudy 2500 ft
Partly cloudy 4800 ft
Overcast 6000 ft
2020/02/16 18:24 KMPO 161824Z AUTO 24008KT 10SM SCT025 SCT048 OVC060 01/M07 A3001 RMK AO2 T00061067
 
KABE - Allentown, Pennsylvania, USA
Distance from station: SSE 36mi, 58km
Updated: 02/16/2020 1:51pm
Overcast
Overcast
 Wind from varies
Wind: varies 5 mph , 7 km/h
Temperature: 43°F , 6°C
Wind Chill: 40°F , 4°C
Dew Point: 21°F , -6°C
Humidity: 42%
Barometer: 30.10 inHg , 1019.3 hPa
Clouds: Overcast
Visibility: 10 miles , 16 km
Cloud details: Mostly cloudy 7500 ft
Overcast 9000 ft
2020/02/16 18:51 KABE 161851Z VRB04KT 10SM BKN075 OVC090 06/M06 A3010 RMK AO2 SLP195 T00561061
KXLL - Allentown Queen, Pennsylvania, USA
Distance from station: SSE 41mi, 65km
Updated: 02/16/2020 1:35pm
Partly cloudy
Partly cloudy
 Wind from WNW
Wind: WNW 3 mph , 6 km/h
Temperature: 41°F , 5°C
Dew Point: 25°F , -4°C
Humidity: 53%
Barometer: 30.12 inHg , 1020 hPa
Clouds: Partly cloudy
Visibility: 10 miles , 16 km
Cloud details: Partly cloudy 7000 ft
Partly cloudy 9000 ft
2020/02/16 18:35 KXLL 161835Z AUTO 29003KT 10SM SCT070 SCT090 05/M04 A3012 RMK AO2